Time;durP1;ratioP1;P1;durP2;ratioP2;P2;SDS_P1;SDS_P2;PMS_P1;PMS_P2;Temp;Humidity;BMP_temperature;BMP_pressure;BME280_temperature;BME280_humidity;BME280_pressure;Samples;Min_cycle;Max_cycle;Signal;HPM_P1;HPM_P2
2022/09/29 00:01:09;;;;;;;4.88;4.40;;;6.20;99.90;;;;;;4892264;29;20128;-68
2022/09/29 00:03:35;;;;;;;5.38;4.88;;;6.20;99.90;;;;;;4883556;29;20120;-68
2022/09/29 00:06:01;;;;;;;5.45;4.95;;;6.20;99.90;;;;;;4896058;29;20052;-68
2022/09/29 00:08:29;;;;;;;5.25;4.80;;;6.20;99.90;;;;;;4877869;29;20048;-68
2022/09/29 00:10:54;;;;;;;5.00;4.50;;;6.10;99.90;;;;;;4898176;29;20067;-68
2022/09/29 00:13:20;;;;;;;5.25;4.75;;;6.10;99.90;;;;;;4878375;29;20405;-68
2022/09/29 00:15:55;;;;;;;5.60;5.03;;;6.10;99.90;;;;;;4895703;29;20102;-68
2022/09/29 00:18:20;;;;;;;5.32;4.85;;;6.10;99.90;;;;;;4871221;29;20493;-68
2022/09/29 00:21:05;;;;;;;5.53;5.03;;;6.10;99.90;;;;;;4887514;29;20090;-67
2022/09/29 00:23:33;;;;;;;6.00;5.25;;;6.10;99.90;;;;;;4866998;29;20052;-67
2022/09/29 00:26:05;;;;;;;6.07;5.50;;;6.00;99.90;;;;;;4896648;29;20486;-67
2022/09/29 00:28:31;;;;;;;8.13;5.22;;;6.00;99.90;;;;;;4895675;29;20092;-68
2022/09/29 00:30:59;;;;;;;5.47;4.97;;;6.00;99.90;;;;;;4888987;29;20071;-68
2022/09/29 00:33:25;;;;;;;5.93;4.95;;;6.00;99.90;;;;;;4871537;29;20059;-68
2022/09/29 00:36:05;;;;;;;6.90;5.55;;;6.00;99.90;;;;;;4896147;29;20056;-68
2022/09/29 00:38:32;;;;;;;5.82;5.30;;;6.00;99.90;;;;;;4889678;29;20061;-67
2022/09/29 00:40:58;;;;;;;5.35;4.88;;;6.00;99.90;;;;;;4880167;29;20056;-68
2022/09/29 00:43:48;;;;;;;6.60;5.97;;;6.00;99.90;;;;;;4889187;29;20073;-68
2022/09/29 00:46:18;;;;;;;5.80;5.18;;;5.90;99.90;;;;;;4895480;29;20065;-68
2022/09/29 00:48:44;;;;;;;6.55;5.95;;;5.90;99.90;;;;;;4897392;29;20401;-68
2022/09/29 00:51:10;;;;;;;6.40;5.80;;;5.90;99.90;;;;;;4879230;29;20485;-68
2022/09/29 00:53:36;;;;;;;5.95;5.40;;;5.80;99.90;;;;;;4894553;29;20048;-68
2022/09/29 00:56:06;;;;;;;6.53;5.50;;;5.90;99.90;;;;;;4895649;29;20052;-68
2022/09/29 00:58:38;;;;;;;6.30;5.70;;;5.80;99.90;;;;;;4896246;29;20064;-68
2022/09/29 01:01:04;;;;;;;7.28;5.47;;;5.80;99.90;;;;;;4878878;29;20109;-68
2022/09/29 01:03:36;;;;;;;6.22;5.72;;;5.80;99.90;;;;;;4878932;29;20064;-68
2022/09/29 01:06:09;;;;;;;6.18;5.65;;;5.80;99.90;;;;;;4897064;29;20047;-68
2022/09/29 01:09:00;;;;;;;5.88;5.30;;;5.70;99.90;;;;;;4898106;29;20080;-68
2022/09/29 01:11:26;;;;;;;6.00;5.32;;;5.70;99.90;;;;;;4897996;29;20493;-68
2022/09/29 01:13:53;;;;;;;6.20;5.50;;;5.70;99.90;;;;;;4884462;29;20125;-68
2022/09/29 01:16:19;;;;;;;6.40;5.75;;;5.70;99.90;;;;;;4898187;29;20070;-68
2022/09/29 01:18:46;;;;;;;6.25;5.65;;;5.70;99.90;;;;;;4883229;29;20060;-68
2022/09/29 01:21:27;;;;;;;6.78;6.07;;;5.70;99.90;;;;;;4891693;29;20052;-68
2022/09/29 01:24:49;;;;;;;7.00;6.40;;;5.70;99.90;;;;;;4899139;29;20116;-68
2022/09/29 01:27:34;;;;;;;7.40;6.57;;;5.70;99.90;;;;;;4881785;29;20131;-68
2022/09/29 01:30:24;;;;;;;8.48;7.20;;;5.60;99.90;;;;;;4881546;29;20482;-68
2022/09/29 01:33:14;;;;;;;7.15;6.45;;;5.60;99.90;;;;;;4886648;29;20358;-67
2022/09/29 01:35:47;;;;;;;7.18;6.47;;;5.60;99.90;;;;;;4884543;29;20401;-68
2022/09/29 01:38:22;;;;;;;6.53;5.93;;;5.60;99.90;;;;;;4895769;29;20112;-68
2022/09/29 01:40:57;;;;;;;7.00;6.28;;;5.60;99.90;;;;;;4882224;29;20057;-68
2022/09/29 01:43:55;;;;;;;6.55;5.97;;;5.60;99.90;;;;;;4891696;29;20080;-68
2022/09/29 01:46:27;;;;;;;7.07;6.38;;;5.50;99.90;;;;;;4851582;29;20057;-68
2022/09/29 01:48:55;;;;;;;8.82;7.28;;;5.50;99.90;;;;;;4898452;29;20096;-68
2022/09/29 01:51:29;;;;;;;7.28;6.55;;;5.50;99.90;;;;;;4882499;29;20056;-68
2022/09/29 01:54:01;;;;;;;8.45;7.40;;;5.50;99.90;;;;;;4895489;29;20483;-68
2022/09/29 01:56:34;;;;;;;7.75;6.78;;;5.50;99.90;;;;;;4890751;29;20056;-68
2022/09/29 01:59:10;;;;;;;9.82;7.47;;;5.50;99.90;;;;;;4899582;29;20068;-68
2022/09/29 02:01:39;;;;;;;7.30;6.38;;;5.50;99.90;;;;;;4891660;29;20057;-68
2022/09/29 02:04:34;;;;;;;7.88;6.63;;;5.40;99.90;;;;;;4880839;29;20052;-68
2022/09/29 02:07:06;;;;;;;9.23;6.55;;;5.50;99.90;;;;;;4852144;29;20056;-68
2022/09/29 02:09:38;;;;;;;7.82;6.20;;;5.40;99.90;;;;;;4880070;29;20056;-68
2022/09/29 02:12:06;;;;;;;11.07;6.72;;;5.40;99.90;;;;;;4891963;29;20044;-68
2022/09/29 02:14:38;;;;;;;7.13;6.45;;;5.40;99.90;;;;;;4899339;29;20048;-68
2022/09/29 02:17:18;;;;;;;11.60;6.50;;;5.40;99.90;;;;;;4897370;29;20057;-68
2022/09/29 02:19:45;;;;;;;19.55;7.55;;;5.40;99.90;;;;;;4866913;29;20059;-68
2022/09/29 02:22:11;;;;;;;19.35;7.13;;;5.40;99.90;;;;;;4887927;29;20049;-67
2022/09/29 02:24:37;;;;;;;37.83;7.80;;;5.40;99.90;;;;;;4862832;29;20049;-68
2022/09/29 02:27:03;;;;;;;12.00;6.97;;;5.40;99.90;;;;;;4896509;29;20402;-68
2022/09/29 02:29:30;;;;;;;48.05;8.82;;;5.30;99.90;;;;;;4895543;29;20044;-68
2022/09/29 02:32:00;;;;;;;12.95;6.05;;;5.40;99.90;;;;;;4898584;29;20044;-68
2022/09/29 02:34:26;;;;;;;15.40;6.93;;;5.30;99.90;;;;;;4891669;29;20068;-68
2022/09/29 02:37:21;;;;;;;10.75;7.13;;;5.30;99.90;;;;;;4872471;29;20249;-68
2022/09/29 02:40:15;;;;;;;14.73;6.20;;;5.30;99.90;;;;;;4895398;29;20053;-68
2022/09/29 02:42:52;;;;;;;40.47;7.53;;;5.30;99.90;;;;;;4890013;29;20068;-68
2022/09/29 02:45:35;;;;;;;36.85;7.30;;;5.30;99.90;;;;;;4898269;29;20870;-68
2022/09/29 02:48:14;;;;;;;66.05;9.07;;;5.30;99.90;;;;;;4892128;29;20400;-68
2022/09/29 02:51:09;;;;;;;31.30;7.10;;;5.30;99.90;;;;;;4898258;29;20485;-68
2022/09/29 02:54:17;;;;;;;55.88;9.88;;;5.30;99.90;;;;;;4894648;29;20400;-68
2022/09/29 02:56:57;;;;;;;24.10;6.38;;;5.30;99.90;;;;;;4896968;29;20535;-68
2022/09/29 02:59:41;;;;;;;39.03;8.07;;;5.30;99.90;;;;;;4887364;29;20067;-68
2022/09/29 03:02:06;;;;;;;39.25;7.72;;;5.30;99.90;;;;;;4897077;29;20088;-68
2022/09/29 03:04:32;;;;;;;53.20;8.73;;;5.30;99.90;;;;;;4897548;29;20088;-68
2022/09/29 03:06:58;;;;;;;13.75;6.18;;;5.20;99.90;;;;;;4896415;29;20045;-68
2022/09/29 03:09:23;;;;;;;17.65;6.63;;;5.20;99.90;;;;;;4897246;29;20545;-68
2022/09/29 03:11:49;;;;;;;10.43;5.57;;;5.20;99.90;;;;;;4896763;29;20052;-68
2022/09/29 03:14:14;;;;;;;9.27;5.63;;;5.20;99.90;;;;;;4896309;29;20056;-68
2022/09/29 03:16:40;;;;;;;10.48;6.00;;;5.10;99.90;;;;;;4881086;29;20143;-67
2022/09/29 03:19:06;;;;;;;12.10;6.35;;;5.10;99.90;;;;;;4896769;29;20953;-68
2022/09/29 03:21:32;;;;;;;7.95;6.10;;;5.10;99.90;;;;;;4897297;29;20061;-67
2022/09/29 03:23:57;;;;;;;5.20;4.80;;;5.10;99.90;;;;;;4878965;29;20064;-68
2022/09/29 03:26:23;;;;;;;6.90;6.13;;;5.10;99.90;;;;;;4879936;29;20056;-68
2022/09/29 03:28:50;;;;;;;22.17;6.30;;;5.10;99.90;;;;;;4863170;29;20045;-68
2022/09/29 03:31:15;;;;;;;7.65;5.57;;;5.10;99.90;;;;;;4884971;29;20408;-68
2022/09/29 03:33:41;;;;;;;19.35;6.38;;;5.10;99.90;;;;;;4898164;29;20049;-67
2022/09/29 03:36:10;;;;;;;16.90;7.00;;;5.00;99.90;;;;;;4875999;29;21550;-68
2022/09/29 03:38:36;;;;;;;18.55;6.60;;;5.10;99.90;;;;;;4860015;29;20052;-68
2022/09/29 03:41:02;;;;;;;40.05;8.02;;;5.10;99.90;;;;;;4872273;29;20086;-68
2022/09/29 03:43:28;;;;;;;32.65;6.55;;;5.10;99.90;;;;;;4879237;29;20061;-68
2022/09/29 03:45:55;;;;;;;18.67;6.93;;;5.10;99.90;;;;;;4882363;29;20056;-68
2022/09/29 03:48:22;;;;;;;76.75;8.45;;;5.10;99.90;;;;;;4891733;29;20052;-67
2022/09/29 03:50:49;;;;;;;55.30;9.10;;;5.00;99.90;;;;;;4890031;29;20095;-67
2022/09/29 03:53:15;;;;;;;34.03;7.60;;;5.00;99.90;;;;;;4892620;29;20052;-68
2022/09/29 03:55:46;;;;;;;34.00;7.80;;;5.00;99.90;;;;;;4881048;29;20088;-68
2022/09/29 03:58:11;;;;;;;23.77;6.70;;;5.00;99.90;;;;;;4895956;29;20051;-68
2022/09/29 04:00:37;;;;;;;14.27;6.00;;;5.00;99.90;;;;;;4896012;29;20060;-69
2022/09/29 04:03:03;;;;;;;26.20;7.55;;;5.00;99.90;;;;;;4896473;29;20094;-69
2022/09/29 04:05:29;;;;;;;42.35;9.02;;;5.00;99.90;;;;;;4896457;29;20063;-68
2022/09/29 04:07:54;;;;;;;28.85;9.00;;;5.00;99.90;;;;;;4893265;29;20091;-68
2022/09/29 04:10:20;;;;;;;46.70;9.77;;;5.00;99.90;;;;;;4894962;29;20546;-68
2022/09/29 04:12:46;;;;;;;25.42;8.10;;;5.00;99.90;;;;;;4879026;29;20057;-68
2022/09/29 04:15:11;;;;;;;84.00;11.65;;;5.00;99.90;;;;;;4879397;29;20061;-68
2022/09/29 04:17:37;;;;;;;75.40;10.93;;;5.00;99.90;;;;;;4894589;29;20060;-68
2022/09/29 04:20:02;;;;;;;61.20;10.57;;;5.00;99.90;;;;;;4895603;29;20493;-68
2022/09/29 04:22:28;;;;;;;120.38;14.20;;;5.00;99.90;;;;;;4877548;29;20201;-68
2022/09/29 04:24:54;;;;;;;63.08;10.13;;;5.00;99.90;;;;;;4895019;29;20052;-68
2022/09/29 04:27:20;;;;;;;18.70;8.32;;;4.90;99.90;;;;;;4895590;29;20497;-68
2022/09/29 04:29:46;;;;;;;28.15;9.00;;;5.00;99.90;;;;;;4889598;29;20056;-68
2022/09/29 04:32:11;;;;;;;69.75;13.07;;;4.90;99.90;;;;;;4870313;29;20076;-68
2022/09/29 04:34:37;;;;;;;79.22;12.52;;;4.90;99.90;;;;;;4878764;29;20057;-68
2022/09/29 04:37:03;;;;;;;66.30;11.55;;;5.00;99.90;;;;;;4879640;29;20173;-69
2022/09/29 04:39:29;;;;;;;59.72;10.60;;;4.90;99.90;;;;;;4892772;29;20143;-68
2022/09/29 04:41:54;;;;;;;51.40;10.65;;;4.90;99.90;;;;;;4881832;29;20139;-68
2022/09/29 04:44:21;;;;;;;114.32;14.88;;;4.90;99.90;;;;;;4871000;29;20400;-68
2022/09/29 04:46:49;;;;;;;89.13;11.88;;;4.90;99.90;;;;;;4898657;29;20056;-68
2022/09/29 04:49:15;;;;;;;162.38;19.40;;;4.90;99.90;;;;;;4883500;29;20052;-68
2022/09/29 04:51:40;;;;;;;152.40;12.75;;;4.90;99.90;;;;;;4898787;29;20099;-69
2022/09/29 04:54:06;;;;;;;229.77;18.88;;;4.80;99.90;;;;;;4885530;29;20389;-68
2022/09/29 04:56:31;;;;;;;171.82;15.20;;;4.70;99.90;;;;;;4899568;29;20473;-68
2022/09/29 04:58:57;;;;;;;120.30;16.10;;;4.70;99.90;;;;;;4882884;29;20074;-68
2022/09/29 05:01:24;;;;;;;84.70;14.50;;;4.70;99.90;;;;;;4882299;29;20061;-68
2022/09/29 05:03:49;;;;;;;55.95;10.38;;;4.70;99.90;;;;;;4900625;29;20099;-68
2022/09/29 05:06:16;;;;;;;42.75;9.60;;;4.60;99.90;;;;;;4898048;29;20088;-68
2022/09/29 05:08:41;;;;;;;30.45;9.05;;;4.60;99.90;;;;;;4881016;29;20052;-68
2022/09/29 05:11:09;;;;;;;21.63;8.63;;;4.60;99.90;;;;;;4896177;29;20057;-68
2022/09/29 05:13:35;;;;;;;16.90;8.43;;;4.50;99.90;;;;;;4892727;29;20461;-68
2022/09/29 05:16:02;;;;;;;14.05;7.53;;;4.50;99.90;;;;;;4900156;29;20062;-69
2022/09/29 05:18:28;;;;;;;6.88;6.22;;;4.40;99.90;;;;;;4881420;29;20112;-68
2022/09/29 05:20:54;;;;;;;7.93;7.22;;;4.40;99.90;;;;;;4882883;29;20055;-68
2022/09/29 05:23:20;;;;;;;8.90;7.57;;;4.40;99.90;;;;;;4885024;29;20048;-68
2022/09/29 05:25:46;;;;;;;8.15;7.45;;;4.40;99.90;;;;;;4883203;29;20053;-68
2022/09/29 05:28:13;;;;;;;8.30;7.38;;;4.30;99.90;;;;;;4898494;29;20064;-67
2022/09/29 05:30:40;;;;;;;7.10;6.50;;;4.30;99.90;;;;;;4893954;29;20049;-68
2022/09/29 05:33:06;;;;;;;7.68;6.90;;;4.30;99.90;;;;;;4890215;29;20260;-68
2022/09/29 05:35:31;;;;;;;8.05;7.30;;;4.30;99.90;;;;;;4895033;29;20127;-68
2022/09/29 05:37:57;;;;;;;7.30;6.70;;;4.30;99.90;;;;;;4871535;29;20064;-68
2022/09/29 05:40:25;;;;;;;8.00;7.30;;;4.20;99.90;;;;;;4891936;29;20109;-68
2022/09/29 05:42:51;;;;;;;7.57;6.97;;;4.20;99.90;;;;;;4899137;29;20053;-68
2022/09/29 05:45:17;;;;;;;7.32;6.70;;;4.20;99.90;;;;;;4883280;29;20054;-68
2022/09/29 06:03:33;;;;;;;16.60;7.63;;;4.20;99.90;;;;;;4903357;29;20114;-68
2022/09/29 06:10:05;;;;;;;16.35;8.70;;;4.50;99.90;;;;;;4892199;29;20049;-67
2022/09/29 06:12:36;;;;;;;36.25;9.77;;;4.40;99.90;;;;;;4896110;29;20490;-67
2022/09/29 06:15:53;;;;;;;24.27;9.20;;;4.50;99.90;;;;;;4893258;29;20056;-67
2022/09/29 06:23:17;;;;;;;35.80;10.50;;;4.60;99.90;;;;;;4895267;29;20067;-68
2022/09/29 06:29:50;;;;;;;31.45;10.68;;;4.20;99.90;;;;;;4880491;29;20048;-68
2022/09/29 06:32:16;;;;;;;46.85;11.93;;;4.80;99.90;;;;;;4895461;29;20052;-68
2022/09/29 06:37:36;;;;;;;40.85;11.27;;;4.90;99.90;;;;;;4880210;29;20137;-67
2022/09/29 06:40:07;;;;;;;36.90;12.38;;;5.00;99.90;;;;;;4863111;29;20060;-69
2022/09/29 06:42:33;;;;;;;19.83;10.32;;;5.00;99.90;;;;;;4894636;29;20059;-68
2022/09/29 06:44:58;;;;;;;25.45;11.20;;;5.10;99.90;;;;;;4897854;29;20049;-68
2022/09/29 06:47:24;;;;;;;57.03;13.55;;;5.10;99.90;;;;;;4882077;29;20041;-68
2022/09/29 06:49:50;;;;;;;18.23;10.32;;;5.20;99.90;;;;;;4879873;29;20390;-68
2022/09/29 06:52:16;;;;;;;10.18;9.18;;;5.30;99.90;;;;;;4892953;29;20049;-68
2022/09/29 06:55:22;;;;;;;11.93;10.60;;;5.40;99.90;;;;;;4862407;29;20098;-69
2022/09/29 06:57:47;;;;;;;19.95;11.52;;;5.40;99.90;;;;;;4863323;29;20056;-69
2022/09/29 07:00:13;;;;;;;11.80;10.48;;;5.60;99.90;;;;;;4863317;29;20041;-68
2022/09/29 07:02:39;;;;;;;16.55;12.20;;;5.70;99.90;;;;;;4862598;29;20059;-68
2022/09/29 07:05:05;;;;;;;22.73;12.90;;;5.80;99.90;;;;;;4885065;29;20056;-68
2022/09/29 07:07:30;;;;;;;17.48;11.90;;;5.90;99.90;;;;;;4896926;29;20055;-68
2022/09/29 07:09:56;;;;;;;15.15;12.13;;;6.00;99.90;;;;;;4896667;29;20084;-69
2022/09/29 07:12:22;;;;;;;14.55;11.50;;;6.10;99.90;;;;;;4895338;29;20040;-68
2022/09/29 07:14:47;;;;;;;13.18;11.80;;;6.20;99.90;;;;;;4894107;29;20489;-68
2022/09/29 07:17:14;;;;;;;14.82;12.65;;;6.40;99.90;;;;;;4888976;29;20149;-69
2022/09/29 07:19:39;;;;;;;16.27;12.23;;;6.50;99.90;;;;;;4878633;29;20057;-69
2022/09/29 07:22:05;;;;;;;12.57;11.27;;;6.60;99.90;;;;;;4895019;29;20049;-67
2022/09/29 07:24:31;;;;;;;14.90;12.30;;;4.80;99.90;;;;;;4895585;29;20097;-68
2022/09/29 07:26:56;;;;;;;18.13;12.45;;;6.70;99.90;;;;;;4880496;29;20054;-68
2022/09/29 07:29:22;;;;;;;14.57;12.98;;;6.70;99.90;;;;;;4897663;29;20091;-68
2022/09/29 07:32:08;;;;;;;14.63;11.65;;;6.80;99.90;;;;;;4897766;29;20056;-68
2022/09/29 07:34:37;;;;;;;15.75;12.35;;;6.90;99.90;;;;;;4879419;29;20056;-68
2022/09/29 07:37:03;;;;;;;17.08;12.82;;;6.90;99.90;;;;;;4897114;29;20068;-68
2022/09/29 07:39:28;;;;;;;14.57;12.02;;;7.00;99.90;;;;;;4897060;29;20139;-68
2022/09/29 07:41:56;;;;;;;14.70;13.18;;;7.10;99.90;;;;;;4897973;29;20060;-68
2022/09/29 07:44:22;;;;;;;14.63;12.65;;;7.10;99.90;;;;;;4898209;29;20079;-68
2022/09/29 07:46:48;;;;;;;15.63;13.18;;;7.30;99.90;;;;;;4897778;29;20493;-68
2022/09/29 07:49:15;;;;;;;15.38;13.52;;;7.40;99.90;;;;;;4897927;29;20136;-68
2022/09/29 07:51:40;;;;;;;14.32;12.82;;;7.50;99.90;;;;;;4897577;29;20052;-68
2022/09/29 07:54:06;;;;;;;15.10;13.07;;;7.70;99.90;;;;;;4897503;29;20522;-68
2022/09/29 07:56:32;;;;;;;14.77;13.27;;;7.80;99.90;;;;;;4897896;29;20052;-68
2022/09/29 07:58:58;;;;;;;14.98;13.43;;;7.90;99.90;;;;;;4880988;29;20057;-68
2022/09/29 08:01:24;;;;;;;13.10;11.73;;;8.10;99.90;;;;;;4897840;29;20491;-68
2022/09/29 08:03:54;;;;;;;14.23;12.77;;;8.20;99.90;;;;;;4897402;29;20076;-68
2022/09/29 08:06:21;;;;;;;14.40;12.90;;;8.30;99.90;;;;;;4898037;29;20173;-68
2022/09/29 08:08:48;;;;;;;14.50;12.98;;;8.40;99.90;;;;;;4896779;29;20471;-68
2022/09/29 08:11:16;;;;;;;14.00;12.50;;;8.40;99.90;;;;;;4897932;29;20049;-68
2022/09/29 08:13:41;;;;;;;14.43;12.93;;;8.60;99.90;;;;;;4897568;29;20052;-68
2022/09/29 08:16:11;;;;;;;12.68;11.40;;;8.70;99.90;;;;;;4901821;29;20539;-68
2022/09/29 08:18:37;;;;;;;16.85;12.57;;;8.80;99.90;;;;;;4901131;29;20084;-68
2022/09/29 08:21:04;;;;;;;13.85;12.45;;;8.90;99.90;;;;;;4900772;29;20068;-68
2022/09/29 08:23:33;;;;;;;13.00;11.63;;;9.10;99.90;;;;;;4886589;29;20056;-68
2022/09/29 08:26:01;;;;;;;13.27;11.52;;;9.20;99.90;;;;;;4850868;29;20491;-68
2022/09/29 08:28:28;;;;;;;14.27;12.30;;;9.30;99.90;;;;;;4865642;29;20101;-68
2022/09/29 08:30:54;;;;;;;14.05;12.00;;;9.40;99.90;;;;;;4882391;29;20459;-68
2022/09/29 08:33:19;;;;;;;13.38;11.98;;;9.50;99.90;;;;;;4882275;29;20057;-69
2022/09/29 08:35:45;;;;;;;12.70;11.35;;;9.60;99.90;;;;;;4866152;29;20135;-68
2022/09/29 08:38:11;;;;;;;12.65;11.32;;;9.80;99.90;;;;;;4881520;29;20110;-69
2022/09/29 08:40:37;;;;;;;12.32;11.13;;;10.00;99.90;;;;;;4866244;29;20077;-68
2022/09/29 08:43:14;;;;;;;12.68;11.45;;;10.10;99.90;;;;;;4882110;29;20520;-69
2022/09/29 08:45:48;;;;;;;13.02;11.73;;;10.20;99.90;;;;;;4882466;29;20068;-68
2022/09/29 08:48:23;;;;;;;12.43;11.07;;;10.30;99.90;;;;;;4850105;29;20481;-69
2022/09/29 08:50:58;;;;;;;13.35;11.43;;;10.30;99.90;;;;;;4874336;29;20049;-69
2022/09/29 08:57:03;;;;;;;12.00;10.68;;;10.40;99.90;;;;;;4879338;29;20249;-69
2022/09/29 08:59:56;;;;;;;11.95;10.70;;;10.50;99.90;;;;;;4848260;29;20084;-69
2022/09/29 09:02:51;;;;;;;12.27;11.10;;;10.60;99.90;;;;;;4879281;29;20053;-69
2022/09/29 09:05:43;;;;;;;13.90;11.43;;;10.70;99.90;;;;;;4879411;29;20048;-69
2022/09/29 09:08:26;;;;;;;12.73;11.07;;;10.80;99.90;;;;;;4879314;29;20077;-69
2022/09/29 09:11:17;;;;;;;14.02;12.63;;;10.80;99.90;;;;;;4879839;29;20401;-69
2022/09/29 09:14:06;;;;;;;13.15;11.93;;;11.00;99.90;;;;;;4879454;29;20446;-68
2022/09/29 09:16:39;;;;;;;13.20;11.23;;;11.20;99.90;;;;;;4878937;29;20053;-67
2022/09/29 09:19:24;;;;;;;12.73;11.43;;;11.30;99.90;;;;;;4879048;29;20053;-68
2022/09/29 09:22:24;;;;;;;12.23;11.02;;;11.40;99.90;;;;;;4860778;29;20133;-68
2022/09/29 09:24:57;;;;;;;10.57;9.57;;;11.60;99.90;;;;;;4821156;29;20398;-67
2022/09/29 09:27:32;;;;;;;11.48;10.25;;;11.70;99.90;;;;;;4845017;29;20068;-68
2022/09/29 09:30:14;;;;;;;11.63;10.52;;;11.90;99.90;;;;;;4860731;29;20459;-69
2022/09/29 09:32:50;;;;;;;11.40;9.87;;;12.00;99.90;;;;;;4860748;29;20106;-68
2022/09/29 09:35:28;;;;;;;9.82;8.93;;;12.10;99.90;;;;;;4861251;29;20417;-68
2022/09/29 09:37:58;;;;;;;9.48;8.60;;;12.20;99.90;;;;;;4864515;29;20080;-68
2022/09/29 09:40:28;;;;;;;9.13;7.82;;;12.30;99.90;;;;;;4867443;29;20053;-68
2022/09/29 09:43:17;;;;;;;9.73;8.43;;;12.50;99.90;;;;;;4883502;29;20048;-68
2022/09/29 09:45:58;;;;;;;8.65;7.85;;;12.50;99.90;;;;;;4900071;29;20056;-67
2022/09/29 09:48:45;;;;;;;9.75;8.15;;;12.60;99.90;;;;;;4900149;29;20153;-67
2022/09/29 09:51:21;;;;;;;7.95;6.88;;;12.70;99.90;;;;;;4883087;29;20135;-67
2022/09/29 09:53:49;;;;;;;7.30;6.70;;;12.90;99.90;;;;;;4882615;29;20061;-68
2022/09/29 09:56:43;;;;;;;9.20;8.18;;;13.00;99.90;;;;;;4879056;29;20131;-68
2022/09/29 09:59:38;;;;;;;8.90;6.65;;;13.00;99.90;;;;;;4881313;29;20379;-67
2022/09/29 10:02:04;;;;;;;7.78;7.18;;;13.10;99.90;;;;;;4849108;29;20494;-68
2022/09/29 10:04:31;;;;;;;7.57;6.78;;;13.10;99.90;;;;;;4880852;29;20061;-68
2022/09/29 10:06:57;;;;;;;7.53;6.82;;;13.20;99.90;;;;;;4864079;29;20563;-68
2022/09/29 10:09:22;;;;;;;7.35;6.65;;;13.40;99.90;;;;;;4863979;29;20182;-68
2022/09/29 10:11:48;;;;;;;8.45;6.97;;;13.40;99.90;;;;;;4880905;29;20056;-68
2022/09/29 10:14:26;;;;;;;7.22;6.53;;;13.50;99.90;;;;;;4864183;29;20057;-68
2022/09/29 10:17:05;;;;;;;7.47;6.30;;;13.60;99.90;;;;;;4880268;29;20425;-68
2022/09/29 10:23:22;;;;;;;8.82;7.13;;;13.70;99.90;;;;;;4878690;29;20505;-68
2022/09/29 10:26:08;;;;;;;6.78;6.15;;;13.80;99.90;;;;;;4867032;29;20147;-68
2022/09/29 10:28:51;;;;;;;6.47;5.75;;;13.90;99.90;;;;;;4861685;29;20036;-68
2022/09/29 10:31:34;;;;;;;7.63;6.38;;;13.90;99.90;;;;;;4899004;29;20477;-69
2022/09/29 10:34:01;;;;;;;6.55;6.05;;;14.00;99.90;;;;;;4898702;29;20075;-68
2022/09/29 10:36:32;;;;;;;7.60;6.80;;;14.30;99.90;;;;;;4880979;29;20123;-69
2022/09/29 10:39:01;;;;;;;6.65;6.05;;;14.10;99.90;;;;;;4887672;29;20127;-70
2022/09/29 10:41:27;;;;;;;7.60;6.22;;;14.80;99.90;;;;;;4881308;29;20057;-69
2022/09/29 10:43:53;;;;;;;7.38;6.78;;;14.10;99.90;;;;;;4879046;29;20053;-69
2022/09/29 10:46:37;;;;;;;7.18;6.43;;;14.10;99.90;;;;;;4899021;29;20056;-69
2022/09/29 10:49:14;;;;;;;6.28;5.78;;;14.20;99.90;;;;;;4898269;29;20068;-69
2022/09/29 10:51:48;;;;;;;6.50;5.82;;;14.20;99.90;;;;;;4881067;29;20335;-69
2022/09/29 10:54:15;;;;;;;7.38;6.40;;;14.30;99.90;;;;;;4881530;29;20059;-69
2022/09/29 10:56:48;;;;;;;6.43;5.82;;;14.30;99.90;;;;;;4876430;29;20041;-69
2022/09/29 10:59:16;;;;;;;5.82;5.32;;;14.30;99.90;;;;;;4897055;29;20131;-69
2022/09/29 11:01:50;;;;;;;6.70;5.65;;;14.40;99.90;;;;;;4897662;29;20044;-69
2022/09/29 11:04:24;;;;;;;6.22;5.63;;;14.40;99.90;;;;;;4896231;29;20119;-69
2022/09/29 11:06:50;;;;;;;6.13;5.60;;;14.40;99.90;;;;;;4896537;29;20516;-69
2022/09/29 11:09:15;;;;;;;6.50;6.00;;;14.50;99.90;;;;;;4895131;29;20080;-70
2022/09/29 11:11:47;;;;;;;5.90;5.38;;;14.50;99.90;;;;;;4877532;29;20489;-69
2022/09/29 11:14:24;;;;;;;6.03;5.53;;;14.60;99.90;;;;;;4895901;29;20785;-69
2022/09/29 11:16:56;;;;;;;5.97;5.38;;;14.60;99.90;;;;;;4880113;29;20068;-69
2022/09/29 11:19:22;;;;;;;6.45;5.95;;;14.70;99.90;;;;;;4895390;29;20045;-69
2022/09/29 11:29:49;;;;;;;6.00;4.85;;;14.80;99.90;;;;;;4912158;29;20062;-69
2022/09/29 11:32:53;;;;;;;4.70;4.30;;;15.00;99.90;;;;;;4898316;29;20139;-70
2022/09/29 11:35:37;;;;;;;4.28;2.88;;;15.00;99.90;;;;;;4853028;29;20378;-69
2022/09/29 11:38:21;;;;;;;2.15;1.95;;;14.80;99.90;;;;;;4864659;29;20140;-69
2022/09/29 11:40:56;;;;;;;2.42;2.05;;;14.70;99.90;;;;;;4898219;29;20049;-69
2022/09/29 11:43:53;;;;;;;3.17;1.58;;;14.60;99.90;;;;;;4897694;29;20119;-69
2022/09/29 11:46:46;;;;;;;1.67;1.33;;;14.50;99.90;;;;;;4885562;29;20048;-69
2022/09/29 11:49:30;;;;;;;;;;;14.50;99.90;;;;;;4898054;29;20139;-68
2022/09/29 11:52:27;;;;;;;2.97;2.17;;;14.40;99.90;;;;;;4880120;29;19949;-69
2022/09/29 11:54:56;;;;;;;1.10;1.10;;;14.40;99.90;;;;;;4896539;29;20423;-69
2022/09/29 11:57:46;;;;;;;4.57;1.50;;;14.50;99.90;;;;;;4897975;29;20060;-69
2022/09/29 12:00:25;;;;;;;3.67;1.58;;;14.60;99.90;;;;;;4897429;29;20498;-69
2022/09/29 12:03:15;;;;;;;1.92;1.30;;;14.60;99.90;;;;;;4881088;29;20076;-68
2022/09/29 12:05:59;;;;;;;0.93;0.60;;;14.80;99.90;;;;;;4880144;29;20068;-68
2022/09/29 12:09:06;;;;;;;0.50;0.50;;;14.90;99.90;;;;;;4897136;29;20482;-69
2022/09/29 12:11:52;;;;;;;1.05;0.93;;;14.90;99.90;;;;;;4896668;29;20076;-69
2022/09/29 12:14:50;;;;;;;1.63;1.05;;;15.00;99.90;;;;;;4897085;29;20105;-69
2022/09/29 12:17:17;;;;;;;2.10;1.52;;;15.10;99.90;;;;;;4897402;29;20081;-69
2022/09/29 12:19:46;;;;;;;1.50;1.40;;;15.10;99.90;;;;;;4879424;29;20076;-68
2022/09/29 12:22:33;;;;;;;2.00;1.60;;;15.10;99.90;;;;;;4890691;29;20124;-68
2022/09/29 12:25:01;;;;;;;2.22;2.03;;;15.20;99.90;;;;;;4863771;29;20041;-68
2022/09/29 12:27:35;;;;;;;1.70;1.60;;;15.20;99.90;;;;;;4877641;29;20176;-68
2022/09/29 12:30:27;;;;;;;2.95;2.20;;;15.30;99.90;;;;;;4871029;29;20049;-68
2022/09/29 12:32:57;;;;;;;6.07;3.08;;;15.30;99.90;;;;;;4870348;29;20049;-68
2022/09/29 12:35:34;;;;;;;2.47;2.28;;;15.40;99.90;;;;;;4894996;29;20070;-68
2022/09/29 12:38:17;;;;;;;3.35;2.17;;;15.50;99.90;;;;;;4879865;29;20093;-68
2022/09/29 12:40:58;;;;;;;2.33;2.05;;;15.50;99.90;;;;;;4880691;29;20116;-68
2022/09/29 12:43:53;;;;;;;15.63;7.32;;;15.70;99.90;;;;;;4897423;29;20048;-68
2022/09/29 12:46:34;;;;;;;6.80;3.55;;;15.80;99.90;;;;;;4857896;29;20397;-68
2022/09/29 12:49:37;;;;;;;2.92;1.50;;;15.80;99.90;;;;;;4879408;29;20446;-67
2022/09/29 12:52:11;;;;;;;2.90;1.40;;;15.90;99.90;;;;;;4896210;29;20061;-68
2022/09/29 12:54:50;;;;;;;1.63;1.08;;;15.90;99.90;;;;;;4864744;29;20104;-68
2022/09/29 12:57:29;;;;;;;1.65;1.30;;;15.90;99.90;;;;;;5084295;23;20058;-68
2022/09/29 13:00:19;;;;;;;2.10;1.90;;;15.90;99.90;;;;;;4855339;29;20140;-68
2022/09/29 13:03:14;;;;;;;1.90;1.52;;;15.90;99.90;;;;;;4828131;29;20058;-68
2022/09/29 13:06:07;;;;;;;1.73;1.63;;;15.90;99.90;;;;;;4862195;29;20049;-68
2022/09/29 13:08:44;;;;;;;2.65;1.40;;;16.00;99.90;;;;;;4861554;29;20128;-68
2022/09/29 13:11:44;;;;;;;1.92;1.60;;;16.00;99.90;;;;;;4856446;29;20060;-68
2022/09/29 13:14:37;;;;;;;1.52;1.40;;;15.90;99.90;;;;;;4883717;29;20576;-68
2022/09/29 13:17:32;;;;;;;1.92;1.73;;;16.00;99.90;;;;;;4881952;29;20061;-67
2022/09/29 13:20:16;;;;;;;1.67;1.52;;;16.00;99.90;;;;;;4881630;29;20057;-67
2022/09/29 13:23:07;;;;;;;1.80;1.63;;;16.00;99.90;;;;;;4881909;29;20132;-68
2022/09/29 13:26:06;;;;;;;2.00;1.80;;;16.00;99.90;;;;;;4881647;29;20546;-68
2022/09/29 13:28:45;;;;;;;1.45;1.35;;;16.10;99.90;;;;;;4864844;29;20060;-68
2022/09/29 13:31:15;;;;;;;1.55;1.45;;;16.10;99.90;;;;;;4864710;29;20092;-68
2022/09/29 13:33:47;;;;;;;1.40;1.30;;;16.10;99.90;;;;;;4879604;29;20080;-68
2022/09/29 13:36:28;;;;;;;1.85;1.75;;;16.20;99.90;;;;;;4882683;29;20105;-68
2022/09/29 13:38:58;;;;;;;1.90;1.73;;;16.20;99.90;;;;;;4880983;29;20056;-67
2022/09/29 13:41:30;;;;;;;1.60;1.50;;;16.20;99.90;;;;;;4881792;29;20061;-68
2022/09/29 13:43:55;;;;;;;1.50;1.40;;;16.20;99.90;;;;;;4865016;29;20409;-67
2022/09/29 13:46:30;;;;;;;1.60;1.45;;;16.20;99.90;;;;;;4881619;29;20128;-67
2022/09/29 13:49:11;;;;;;;2.03;1.40;;;16.30;99.90;;;;;;4881333;29;20060;-68
2022/09/29 13:51:59;;;;;;;1.30;1.20;;;16.20;99.90;;;;;;4864290;29;20053;-67
2022/09/29 13:54:32;;;;;;;1.45;1.13;;;16.20;99.90;;;;;;4880439;29;20079;-68
2022/09/29 13:57:07;;;;;;;1.67;1.33;;;16.20;99.90;;;;;;4881314;29;20056;-68
2022/09/29 13:59:34;;;;;;;2.40;1.33;;;16.20;99.90;;;;;;4881052;29;20060;-67
2022/09/29 14:02:01;;;;;;;1.80;1.63;;;16.20;99.90;;;;;;4880866;29;20049;-67
2022/09/29 14:04:48;;;;;;;1.40;1.30;;;16.30;99.90;;;;;;4881001;29;20063;-67